Adairsville, Georgia
Current Conditions -  °F | °C
As of 7:53 AM on Friday 19 Dec 2014 (Local Time) from KRMG Reporting Station
Clear Clear  
Wind Chill: 27°   Ceiling: Unl
Heat Index: 34°   Visibility: 10mi
Dew Point: 29°   Wind: 8mph
Humidity: 82%   Direction: 330°NNW
Pressure: 30.18"   Gusts: NA
Location:  34.37°N, 84.93°W
Report Text: KRMG 191253Z AUTO 33007KT 10SM CLR 01/M02 A3018 RMK AO2 SLP218 T00111017
Loading
Personal Weather Stations






























Interactive Weather Map New forecast layout! Learn more

10-Day Weather Forecast

Advertisements
Track Severe Weather on mobile